sensor_id;sensor_type;location;lat;lon;timestamp;temperature;humidity
26164;DHT22;13914;48.178;11.716;2023-10-31T00:00:26;12.90;9.70
26164;DHT22;13914;48.178;11.716;2023-10-31T00:02:51;13.00;9.70
26164;DHT22;13914;48.178;11.716;2023-10-31T00:05:17;12.90;9.70
26164;DHT22;13914;48.178;11.716;2023-10-31T00:07:43;12.90;9.80
26164;DHT22;13914;48.178;11.716;2023-10-31T00:10:08;12.90;9.70
26164;DHT22;13914;48.178;11.716;2023-10-31T00:12:34;12.80;9.70
26164;DHT22;13914;48.178;11.716;2023-10-31T00:15:00;12.80;9.60
26164;DHT22;13914;48.178;11.716;2023-10-31T00:17:26;12.80;9.70
26164;DHT22;13914;48.178;11.716;2023-10-31T00:19:51;12.80;9.70
26164;DHT22;13914;48.178;11.716;2023-10-31T00:22:17;12.80;9.60
26164;DHT22;13914;48.178;11.716;2023-10-31T00:24:43;12.70;9.60
26164;DHT22;13914;48.178;11.716;2023-10-31T00:27:08;12.80;9.70
26164;DHT22;13914;48.178;11.716;2023-10-31T00:29:34;12.80;9.70
26164;DHT22;13914;48.178;11.716;2023-10-31T00:32:00;12.80;9.60
26164;DHT22;13914;48.178;11.716;2023-10-31T00:34:25;12.70;9.50
26164;DHT22;13914;48.178;11.716;2023-10-31T00:36:51;12.70;9.50
26164;DHT22;13914;48.178;11.716;2023-10-31T00:39:17;12.60;9.40
26164;DHT22;13914;48.178;11.716;2023-10-31T00:41:45;12.70;9.40
26164;DHT22;13914;48.178;11.716;2023-10-31T00:44:14;12.60;9.40
26164;DHT22;13914;48.178;11.716;2023-10-31T00:46:40;12.60;9.50
26164;DHT22;13914;48.178;11.716;2023-10-31T00:49:05;12.60;9.40
26164;DHT22;13914;48.178;11.716;2023-10-31T00:51:31;12.50;9.40
26164;DHT22;13914;48.178;11.716;2023-10-31T00:53:57;12.50;9.30
26164;DHT22;13914;48.178;11.716;2023-10-31T00:56:23;12.50;9.30
26164;DHT22;13914;48.178;11.716;2023-10-31T00:58:49;12.50;9.40
26164;DHT22;13914;48.178;11.716;2023-10-31T01:01:14;12.50;9.40
26164;DHT22;13914;48.178;11.716;2023-10-31T01:03:41;12.50;9.40
26164;DHT22;13914;48.178;11.716;2023-10-31T01:06:07;12.40;9.40
26164;DHT22;13914;48.178;11.716;2023-10-31T01:08:33;12.40;9.40
26164;DHT22;13914;48.178;11.716;2023-10-31T01:11:00;12.40;9.40
26164;DHT22;13914;48.178;11.716;2023-10-31T01:13:25;12.40;9.40
26164;DHT22;13914;48.178;11.716;2023-10-31T01:15:51;12.40;9.40
26164;DHT22;13914;48.178;11.716;2023-10-31T01:18:17;12.30;9.30
26164;DHT22;13914;48.178;11.716;2023-10-31T01:20:42;12.30;9.40
26164;DHT22;13914;48.178;11.716;2023-10-31T01:23:08;12.30;9.40
26164;DHT22;13914;48.178;11.716;2023-10-31T01:25:34;12.30;9.40
26164;DHT22;13914;48.178;11.716;2023-10-31T01:28:00;12.20;9.40
26164;DHT22;13914;48.178;11.716;2023-10-31T01:30:25;12.30;9.50
26164;DHT22;13914;48.178;11.716;2023-10-31T01:32:51;12.20;9.40
26164;DHT22;13914;48.178;11.716;2023-10-31T01:35:17;12.20;9.40
26164;DHT22;13914;48.178;11.716;2023-10-31T01:37:42;12.20;9.50
26164;DHT22;13914;48.178;11.716;2023-10-31T01:40:08;12.10;9.40
26164;DHT22;13914;48.178;11.716;2023-10-31T01:42:37;12.10;9.50
26164;DHT22;13914;48.178;11.716;2023-10-31T01:45:03;12.10;9.40
26164;DHT22;13914;48.178;11.716;2023-10-31T01:47:29;12.10;9.40
26164;DHT22;13914;48.178;11.716;2023-10-31T01:49:55;12.00;9.40
26164;DHT22;13914;48.178;11.716;2023-10-31T01:52:21;12.10;9.50
26164;DHT22;13914;48.178;11.716;2023-10-31T01:54:46;12.00;9.50
26164;DHT22;13914;48.178;11.716;2023-10-31T01:57:12;12.00;9.50
26164;DHT22;13914;48.178;11.716;2023-10-31T01:59:39;12.00;9.50
26164;DHT22;13914;48.178;11.716;2023-10-31T02:02:04;11.90;9.50
26164;DHT22;13914;48.178;11.716;2023-10-31T02:04:30;11.90;9.60
26164;DHT22;13914;48.178;11.716;2023-10-31T02:06:56;11.90;9.50
26164;DHT22;13914;48.178;11.716;2023-10-31T02:09:21;11.90;9.60
26164;DHT22;13914;48.178;11.716;2023-10-31T02:11:50;11.90;9.50
26164;DHT22;13914;48.178;11.716;2023-10-31T02:14:15;11.90;9.50
26164;DHT22;13914;48.178;11.716;2023-10-31T02:16:41;11.90;9.60
26164;DHT22;13914;48.178;11.716;2023-10-31T02:19:07;11.80;9.50
26164;DHT22;13914;48.178;11.716;2023-10-31T02:21:32;11.90;9.60
26164;DHT22;13914;48.178;11.716;2023-10-31T02:23:59;11.80;9.60
26164;DHT22;13914;48.178;11.716;2023-10-31T02:26:29;11.80;9.60
26164;DHT22;13914;48.178;11.716;2023-10-31T02:28:56;11.80;9.60
26164;DHT22;13914;48.178;11.716;2023-10-31T02:31:22;11.80;9.70
26164;DHT22;13914;48.178;11.716;2023-10-31T02:33:47;11.80;9.80
26164;DHT22;13914;48.178;11.716;2023-10-31T02:36:13;11.90;9.80
26164;DHT22;13914;48.178;11.716;2023-10-31T02:38:39;11.80;9.80
26164;DHT22;13914;48.178;11.716;2023-10-31T02:41:04;11.80;9.80
26164;DHT22;13914;48.178;11.716;2023-10-31T02:43:30;11.70;9.70
26164;DHT22;13914;48.178;11.716;2023-10-31T02:45:56;11.70;9.80
26164;DHT22;13914;48.178;11.716;2023-10-31T02:48:22;11.70;9.70
26164;DHT22;13914;48.178;11.716;2023-10-31T02:50:50;11.70;9.80
26164;DHT22;13914;48.178;11.716;2023-10-31T02:53:17;11.60;9.70
26164;DHT22;13914;48.178;11.716;2023-10-31T02:55:43;11.70;9.80
26164;DHT22;13914;48.178;11.716;2023-10-31T02:58:09;11.70;9.80
26164;DHT22;13914;48.178;11.716;2023-10-31T03:00:35;11.60;9.80
26164;DHT22;13914;48.178;11.716;2023-10-31T03:03:00;11.60;9.70
26164;DHT22;13914;48.178;11.716;2023-10-31T03:05:26;11.60;9.80
26164;DHT22;13914;48.178;11.716;2023-10-31T03:07:52;11.60;9.80
26164;DHT22;13914;48.178;11.716;2023-10-31T03:10:19;11.60;9.80
26164;DHT22;13914;48.178;11.716;2023-10-31T03:12:45;11.60;9.80
26164;DHT22;13914;48.178;11.716;2023-10-31T03:15:10;11.60;9.70
26164;DHT22;13914;48.178;11.716;2023-10-31T03:17:36;11.60;9.80
26164;DHT22;13914;48.178;11.716;2023-10-31T03:20:02;11.50;9.70
26164;DHT22;13914;48.178;11.716;2023-10-31T03:22:28;11.50;9.80
26164;DHT22;13914;48.178;11.716;2023-10-31T03:24:54;11.50;9.80
26164;DHT22;13914;48.178;11.716;2023-10-31T03:27:19;11.50;9.90
26164;DHT22;13914;48.178;11.716;2023-10-31T03:29:45;11.50;9.90
26164;DHT22;13914;48.178;11.716;2023-10-31T03:32:11;11.50;9.90
26164;DHT22;13914;48.178;11.716;2023-10-31T03:34:37;11.40;9.90
26164;DHT22;13914;48.178;11.716;2023-10-31T03:37:03;11.40;9.90
26164;DHT22;13914;48.178;11.716;2023-10-31T03:39:29;11.40;9.90
26164;DHT22;13914;48.178;11.716;2023-10-31T03:41:55;11.40;9.90
26164;DHT22;13914;48.178;11.716;2023-10-31T03:44:21;11.40;9.90
26164;DHT22;13914;48.178;11.716;2023-10-31T03:46:46;11.40;9.90
26164;DHT22;13914;48.178;11.716;2023-10-31T03:49:12;11.30;9.80
26164;DHT22;13914;48.178;11.716;2023-10-31T03:51:38;11.40;9.90
26164;DHT22;13914;48.178;11.716;2023-10-31T03:54:03;11.30;9.90
26164;DHT22;13914;48.178;11.716;2023-10-31T03:56:29;11.30;9.90
26164;DHT22;13914;48.178;11.716;2023-10-31T03:58:55;11.30;9.80
26164;DHT22;13914;48.178;11.716;2023-10-31T04:01:21;11.30;9.80
26164;DHT22;13914;48.178;11.716;2023-10-31T04:03:46;11.30;9.80
26164;DHT22;13914;48.178;11.716;2023-10-31T04:06:12;11.30;9.80
26164;DHT22;13914;48.178;11.716;2023-10-31T04:08:38;11.30;9.80
26164;DHT22;13914;48.178;11.716;2023-10-31T04:11:03;11.30;9.80
26164;DHT22;13914;48.178;11.716;2023-10-31T04:13:29;11.20;9.80
26164;DHT22;13914;48.178;11.716;2023-10-31T04:15:54;11.20;9.80
26164;DHT22;13914;48.178;11.716;2023-10-31T04:18:20;11.20;9.80
26164;DHT22;13914;48.178;11.716;2023-10-31T04:20:46;11.20;9.80
26164;DHT22;13914;48.178;11.716;2023-10-31T04:23:11;11.20;9.80
26164;DHT22;13914;48.178;11.716;2023-10-31T04:25:38;11.20;9.80
26164;DHT22;13914;48.178;11.716;2023-10-31T04:28:03;11.20;9.80
26164;DHT22;13914;48.178;11.716;2023-10-31T04:30:29;11.20;9.90
26164;DHT22;13914;48.178;11.716;2023-10-31T04:32:55;11.10;9.80
26164;DHT22;13914;48.178;11.716;2023-10-31T04:35:20;11.10;9.80
26164;DHT22;13914;48.178;11.716;2023-10-31T04:37:46;11.10;9.80
26164;DHT22;13914;48.178;11.716;2023-10-31T04:40:12;11.10;9.80
26164;DHT22;13914;48.178;11.716;2023-10-31T04:42:38;11.10;9.80
26164;DHT22;13914;48.178;11.716;2023-10-31T04:45:05;11.10;9.80
26164;DHT22;13914;48.178;11.716;2023-10-31T04:47:31;11.10;9.80
26164;DHT22;13914;48.178;11.716;2023-10-31T04:49:57;11.10;9.80
26164;DHT22;13914;48.178;11.716;2023-10-31T04:52:23;11.10;9.80
26164;DHT22;13914;48.178;11.716;2023-10-31T04:54:51;11.10;9.80
26164;DHT22;13914;48.178;11.716;2023-10-31T04:57:17;11.00;9.70
26164;DHT22;13914;48.178;11.716;2023-10-31T04:59:43;11.00;9.80
26164;DHT22;13914;48.178;11.716;2023-10-31T05:02:08;11.00;9.70
26164;DHT22;13914;48.178;11.716;2023-10-31T05:04:37;11.00;9.60
26164;DHT22;13914;48.178;11.716;2023-10-31T05:07:03;11.00;9.70
26164;DHT22;13914;48.178;11.716;2023-10-31T05:09:29;11.00;9.70
26164;DHT22;13914;48.178;11.716;2023-10-31T05:11:54;11.00;9.80
26164;DHT22;13914;48.178;11.716;2023-10-31T05:14:20;11.00;9.70
26164;DHT22;13914;48.178;11.716;2023-10-31T05:16:46;10.90;9.70
26164;DHT22;13914;48.178;11.716;2023-10-31T05:19:12;11.00;9.70
26164;DHT22;13914;48.178;11.716;2023-10-31T05:21:37;11.00;9.70
26164;DHT22;13914;48.178;11.716;2023-10-31T05:24:03;10.90;9.70
26164;DHT22;13914;48.178;11.716;2023-10-31T05:26:29;10.90;9.70
26164;DHT22;13914;48.178;11.716;2023-10-31T05:28:55;10.90;9.70
26164;DHT22;13914;48.178;11.716;2023-10-31T05:31:23;10.90;9.80
26164;DHT22;13914;48.178;11.716;2023-10-31T05:33:50;10.90;9.80
26164;DHT22;13914;48.178;11.716;2023-10-31T05:36:18;10.90;9.80
26164;DHT22;13914;48.178;11.716;2023-10-31T05:38:45;10.90;9.80
26164;DHT22;13914;48.178;11.716;2023-10-31T05:41:11;10.90;9.80
26164;DHT22;13914;48.178;11.716;2023-10-31T05:43:36;10.90;9.90
26164;DHT22;13914;48.178;11.716;2023-10-31T05:46:02;10.80;9.80
26164;DHT22;13914;48.178;11.716;2023-10-31T05:48:28;10.80;9.80
26164;DHT22;13914;48.178;11.716;2023-10-31T05:50:53;10.80;9.80
26164;DHT22;13914;48.178;11.716;2023-10-31T05:53:19;10.80;9.90
26164;DHT22;13914;48.178;11.716;2023-10-31T05:55:45;10.80;9.90
26164;DHT22;13914;48.178;11.716;2023-10-31T05:58:10;10.80;9.90
26164;DHT22;13914;48.178;11.716;2023-10-31T06:00:37;10.80;9.90
26164;DHT22;13914;48.178;11.716;2023-10-31T06:03:03;10.80;9.90
26164;DHT22;13914;48.178;11.716;2023-10-31T06:05:29;10.80;9.90
26164;DHT22;13914;48.178;11.716;2023-10-31T06:07:54;10.80;10.50
26164;DHT22;13914;48.178;11.716;2023-10-31T06:10:20;10.80;9.90
26164;DHT22;13914;48.178;11.716;2023-10-31T06:12:47;10.80;9.80
26164;DHT22;13914;48.178;11.716;2023-10-31T06:15:12;10.80;9.90
26164;DHT22;13914;48.178;11.716;2023-10-31T06:17:38;10.70;10.00
26164;DHT22;13914;48.178;11.716;2023-10-31T06:20:06;10.70;10.00
26164;DHT22;13914;48.178;11.716;2023-10-31T06:22:33;10.80;10.00
26164;DHT22;13914;48.178;11.716;2023-10-31T06:24:59;10.70;9.90
26164;DHT22;13914;48.178;11.716;2023-10-31T06:27:24;10.70;10.00
26164;DHT22;13914;48.178;11.716;2023-10-31T06:29:50;10.70;9.90
26164;DHT22;13914;48.178;11.716;2023-10-31T06:32:16;10.70;9.90
26164;DHT22;13914;48.178;11.716;2023-10-31T06:34:41;10.70;9.90
26164;DHT22;13914;48.178;11.716;2023-10-31T06:37:07;10.70;10.00
26164;DHT22;13914;48.178;11.716;2023-10-31T06:39:33;10.70;10.00
26164;DHT22;13914;48.178;11.716;2023-10-31T06:41:58;10.70;10.00
26164;DHT22;13914;48.178;11.716;2023-10-31T06:44:24;10.70;10.00
26164;DHT22;13914;48.178;11.716;2023-10-31T06:46:50;10.70;9.90
26164;DHT22;13914;48.178;11.716;2023-10-31T06:49:15;10.70;10.00
26164;DHT22;13914;48.178;11.716;2023-10-31T06:51:41;10.70;10.10
26164;DHT22;13914;48.178;11.716;2023-10-31T06:54:07;10.70;10.00
26164;DHT22;13914;48.178;11.716;2023-10-31T06:56:32;10.70;10.10
26164;DHT22;13914;48.178;11.716;2023-10-31T06:58:58;10.70;10.00
26164;DHT22;13914;48.178;11.716;2023-10-31T07:01:24;10.70;10.10
26164;DHT22;13914;48.178;11.716;2023-10-31T07:03:50;10.70;10.10
26164;DHT22;13914;48.178;11.716;2023-10-31T07:06:15;10.70;10.20
26164;DHT22;13914;48.178;11.716;2023-10-31T07:08:41;10.70;10.20
26164;DHT22;13914;48.178;11.716;2023-10-31T07:11:06;10.70;10.30
26164;DHT22;13914;48.178;11.716;2023-10-31T07:13:32;10.70;10.30
26164;DHT22;13914;48.178;11.716;2023-10-31T07:15:58;10.70;10.30
26164;DHT22;13914;48.178;11.716;2023-10-31T07:18:23;10.70;10.40
26164;DHT22;13914;48.178;11.716;2023-10-31T07:20:49;10.70;10.30
26164;DHT22;13914;48.178;11.716;2023-10-31T07:23:15;10.70;10.30
26164;DHT22;13914;48.178;11.716;2023-10-31T07:25:41;10.70;10.30
26164;DHT22;13914;48.178;11.716;2023-10-31T07:28:07;10.70;10.30
26164;DHT22;13914;48.178;11.716;2023-10-31T07:30:32;10.80;10.40
26164;DHT22;13914;48.178;11.716;2023-10-31T07:32:58;10.70;10.40
26164;DHT22;13914;48.178;11.716;2023-10-31T07:35:23;10.70;10.40
26164;DHT22;13914;48.178;11.716;2023-10-31T07:37:49;10.70;10.40
26164;DHT22;13914;48.178;11.716;2023-10-31T07:40:15;10.70;10.40
26164;DHT22;13914;48.178;11.716;2023-10-31T07:42:40;10.70;10.40
26164;DHT22;13914;48.178;11.716;2023-10-31T07:45:06;10.80;10.50
26164;DHT22;13914;48.178;11.716;2023-10-31T07:47:32;10.70;10.40
26164;DHT22;13914;48.178;11.716;2023-10-31T07:49:58;10.80;10.50
26164;DHT22;13914;48.178;11.716;2023-10-31T07:52:24;10.70;10.50
26164;DHT22;13914;48.178;11.716;2023-10-31T07:54:50;10.80;10.50
26164;DHT22;13914;48.178;11.716;2023-10-31T07:57:15;10.80;10.50
26164;DHT22;13914;48.178;11.716;2023-10-31T07:59:41;10.80;10.40
26164;DHT22;13914;48.178;11.716;2023-10-31T08:02:07;10.80;10.50
26164;DHT22;13914;48.178;11.716;2023-10-31T08:04:32;10.80;10.30
26164;DHT22;13914;48.178;11.716;2023-10-31T08:06:58;10.80;10.30
26164;DHT22;13914;48.178;11.716;2023-10-31T08:09:24;10.80;10.30
26164;DHT22;13914;48.178;11.716;2023-10-31T08:11:49;10.80;10.30
26164;DHT22;13914;48.178;11.716;2023-10-31T08:14:15;10.80;10.30
26164;DHT22;13914;48.178;11.716;2023-10-31T08:16:41;10.80;10.30
26164;DHT22;13914;48.178;11.716;2023-10-31T08:19:07;10.90;10.30
26164;DHT22;13914;48.178;11.716;2023-10-31T08:21:33;10.90;10.20
26164;DHT22;13914;48.178;11.716;2023-10-31T08:24:01;10.90;10.30
26164;DHT22;13914;48.178;11.716;2023-10-31T08:26:27;10.90;10.20
26164;DHT22;13914;48.178;11.716;2023-10-31T08:28:53;10.90;10.20
26164;DHT22;13914;48.178;11.716;2023-10-31T08:31:19;10.90;10.10
26164;DHT22;13914;48.178;11.716;2023-10-31T08:33:45;10.90;10.10
26164;DHT22;13914;48.178;11.716;2023-10-31T08:36:11;10.90;10.20
26164;DHT22;13914;48.178;11.716;2023-10-31T08:38:37;10.90;10.10
26164;DHT22;13914;48.178;11.716;2023-10-31T08:41:02;10.90;10.00
26164;DHT22;13914;48.178;11.716;2023-10-31T08:43:28;10.90;10.00
26164;DHT22;13914;48.178;11.716;2023-10-31T08:45:54;11.00;10.00
26164;DHT22;13914;48.178;11.716;2023-10-31T08:48:20;10.90;10.00
26164;DHT22;13914;48.178;11.716;2023-10-31T08:50:46;11.00;10.00
26164;DHT22;13914;48.178;11.716;2023-10-31T08:53:11;11.00;10.00
26164;DHT22;13914;48.178;11.716;2023-10-31T08:55:37;11.00;10.00
26164;DHT22;13914;48.178;11.716;2023-10-31T08:58:03;11.00;9.90
26164;DHT22;13914;48.178;11.716;2023-10-31T09:00:29;11.00;9.90
26164;DHT22;13914;48.178;11.716;2023-10-31T09:02:54;11.00;9.90
26164;DHT22;13914;48.178;11.716;2023-10-31T09:05:20;11.00;9.90
26164;DHT22;13914;48.178;11.716;2023-10-31T09:07:46;11.00;9.80
26164;DHT22;13914;48.178;11.716;2023-10-31T09:10:12;11.00;9.80
26164;DHT22;13914;48.178;11.716;2023-10-31T09:12:38;11.10;9.90
26164;DHT22;13914;48.178;11.716;2023-10-31T09:15:03;11.00;9.80
26164;DHT22;13914;48.178;11.716;2023-10-31T09:17:29;11.00;9.80
26164;DHT22;13914;48.178;11.716;2023-10-31T09:19:57;11.00;9.80
26164;DHT22;13914;48.178;11.716;2023-10-31T09:22:22;11.10;9.80
26164;DHT22;13914;48.178;11.716;2023-10-31T09:24:48;11.10;9.90
26164;DHT22;13914;48.178;11.716;2023-10-31T09:27:14;11.10;9.90
26164;DHT22;13914;48.178;11.716;2023-10-31T09:29:40;11.00;9.80
26164;DHT22;13914;48.178;11.716;2023-10-31T09:32:06;11.10;9.80
26164;DHT22;13914;48.178;11.716;2023-10-31T09:34:32;11.10;9.90
26164;DHT22;13914;48.178;11.716;2023-10-31T09:36:58;11.10;9.90
26164;DHT22;13914;48.178;11.716;2023-10-31T09:39:23;11.10;9.80
26164;DHT22;13914;48.178;11.716;2023-10-31T09:41:49;11.10;9.90
26164;DHT22;13914;48.178;11.716;2023-10-31T09:44:15;11.10;9.90
26164;DHT22;13914;48.178;11.716;2023-10-31T09:46:40;11.10;9.80
26164;DHT22;13914;48.178;11.716;2023-10-31T09:49:07;11.10;9.80
26164;DHT22;13914;48.178;11.716;2023-10-31T09:51:33;11.10;9.80
26164;DHT22;13914;48.178;11.716;2023-10-31T09:53:59;11.10;9.80
26164;DHT22;13914;48.178;11.716;2023-10-31T09:56:27;11.10;9.80
26164;DHT22;13914;48.178;11.716;2023-10-31T09:59:03;11.20;9.80
26164;DHT22;13914;48.178;11.716;2023-10-31T10:01:29;11.20;9.80
26164;DHT22;13914;48.178;11.716;2023-10-31T10:03:56;11.20;9.70
26164;DHT22;13914;48.178;11.716;2023-10-31T10:06:21;11.20;9.70
26164;DHT22;13914;48.178;11.716;2023-10-31T10:08:49;11.20;9.60
26164;DHT22;13914;48.178;11.716;2023-10-31T10:11:15;11.20;9.70
26164;DHT22;13914;48.178;11.716;2023-10-31T10:13:40;11.20;9.60
26164;DHT22;13914;48.178;11.716;2023-10-31T10:16:06;11.20;9.60
26164;DHT22;13914;48.178;11.716;2023-10-31T10:18:34;11.20;9.70
26164;DHT22;13914;48.178;11.716;2023-10-31T10:21:03;11.20;9.70
26164;DHT22;13914;48.178;11.716;2023-10-31T10:23:30;11.20;9.60
26164;DHT22;13914;48.178;11.716;2023-10-31T10:25:56;11.30;9.60
26164;DHT22;13914;48.178;11.716;2023-10-31T10:28:23;11.30;9.60
26164;DHT22;13914;48.178;11.716;2023-10-31T10:30:54;11.30;9.70
26164;DHT22;13914;48.178;11.716;2023-10-31T10:33:20;11.30;9.60
26164;DHT22;13914;48.178;11.716;2023-10-31T10:35:46;11.40;9.70
26164;DHT22;13914;48.178;11.716;2023-10-31T10:38:13;11.30;9.60
26164;DHT22;13914;48.178;11.716;2023-10-31T10:40:42;11.30;9.60
26164;DHT22;13914;48.178;11.716;2023-10-31T10:43:26;11.40;9.60
26164;DHT22;13914;48.178;11.716;2023-10-31T10:48:21;11.40;9.60
26164;DHT22;13914;48.178;11.716;2023-10-31T10:50:51;11.40;9.60
26164;DHT22;13914;48.178;11.716;2023-10-31T10:53:23;11.40;9.60
26164;DHT22;13914;48.178;11.716;2023-10-31T10:55:55;11.40;9.50
26164;DHT22;13914;48.178;11.716;2023-10-31T10:58:26;11.40;9.60
26164;DHT22;13914;48.178;11.716;2023-10-31T11:00:56;11.40;9.60
26164;DHT22;13914;48.178;11.716;2023-10-31T11:03:24;11.50;9.60
26164;DHT22;13914;48.178;11.716;2023-10-31T11:05:50;11.50;9.50
26164;DHT22;13914;48.178;11.716;2023-10-31T11:08:16;11.50;9.60
26164;DHT22;13914;48.178;11.716;2023-10-31T11:10:42;11.50;9.50
26164;DHT22;13914;48.178;11.716;2023-10-31T11:13:07;11.50;9.50
26164;DHT22;13914;48.178;11.716;2023-10-31T11:15:33;11.50;9.50
26164;DHT22;13914;48.178;11.716;2023-10-31T11:17:59;11.50;9.50
26164;DHT22;13914;48.178;11.716;2023-10-31T11:20:25;11.60;9.60
26164;DHT22;13914;48.178;11.716;2023-10-31T11:22:54;11.60;9.60
26164;DHT22;13914;48.178;11.716;2023-10-31T11:25:23;11.60;9.50
26164;DHT22;13914;48.178;11.716;2023-10-31T11:27:52;11.60;9.60
26164;DHT22;13914;48.178;11.716;2023-10-31T11:32:53;11.60;9.50
26164;DHT22;13914;48.178;11.716;2023-10-31T11:35:19;11.70;9.50
26164;DHT22;13914;48.178;11.716;2023-10-31T11:37:47;11.70;9.50
26164;DHT22;13914;48.178;11.716;2023-10-31T11:40:21;11.70;9.50
26164;DHT22;13914;48.178;11.716;2023-10-31T11:42:51;11.70;9.50
26164;DHT22;13914;48.178;11.716;2023-10-31T11:45:29;11.80;9.50
26164;DHT22;13914;48.178;11.716;2023-10-31T11:48:03;11.80;9.50
26164;DHT22;13914;48.178;11.716;2023-10-31T11:50:32;11.80;9.50
26164;DHT22;13914;48.178;11.716;2023-10-31T11:53:02;11.80;9.40
26164;DHT22;13914;48.178;11.716;2023-10-31T11:55:47;11.80;9.50
26164;DHT22;13914;48.178;11.716;2023-10-31T11:58:15;11.90;9.50
26164;DHT22;13914;48.178;11.716;2023-10-31T12:00:46;12.00;9.50
26164;DHT22;13914;48.178;11.716;2023-10-31T12:03:14;12.00;9.50
26164;DHT22;13914;48.178;11.716;2023-10-31T12:05:50;12.00;9.40
26164;DHT22;13914;48.178;11.716;2023-10-31T12:11:08;12.00;9.30
26164;DHT22;13914;48.178;11.716;2023-10-31T12:13:36;12.00;9.30
26164;DHT22;13914;48.178;11.716;2023-10-31T12:16:06;12.10;9.40
26164;DHT22;13914;48.178;11.716;2023-10-31T12:18:33;12.10;9.40
26164;DHT22;13914;48.178;11.716;2023-10-31T12:21:00;12.10;9.40
26164;DHT22;13914;48.178;11.716;2023-10-31T12:23:26;12.10;9.30
26164;DHT22;13914;48.178;11.716;2023-10-31T12:25:51;12.10;9.30
26164;DHT22;13914;48.178;11.716;2023-10-31T12:28:20;12.20;9.30
26164;DHT22;13914;48.178;11.716;2023-10-31T12:30:47;12.20;9.20
26164;DHT22;13914;48.178;11.716;2023-10-31T12:33:14;12.20;9.20
26164;DHT22;13914;48.178;11.716;2023-10-31T12:35:40;12.30;9.30
26164;DHT22;13914;48.178;11.716;2023-10-31T12:38:06;12.30;9.20
26164;DHT22;13914;48.178;11.716;2023-10-31T12:40:33;12.30;9.20
26164;DHT22;13914;48.178;11.716;2023-10-31T12:42:59;12.30;9.10
26164;DHT22;13914;48.178;11.716;2023-10-31T12:45:26;12.30;9.10
26164;DHT22;13914;48.178;11.716;2023-10-31T12:48:25;12.40;9.10
26164;DHT22;13914;48.178;11.716;2023-10-31T12:50:48;12.40;9.10
26164;DHT22;13914;48.178;11.716;2023-10-31T12:53:22;12.40;9.10
26164;DHT22;13914;48.178;11.716;2023-10-31T12:55:49;12.40;9.00
26164;DHT22;13914;48.178;11.716;2023-10-31T12:58:21;12.40;9.10
26164;DHT22;13914;48.178;11.716;2023-10-31T13:00:48;12.40;9.10
26164;DHT22;13914;48.178;11.716;2023-10-31T13:03:14;12.50;9.00
26164;DHT22;13914;48.178;11.716;2023-10-31T13:05:40;12.50;9.00
26164;DHT22;13914;48.178;11.716;2023-10-31T13:08:10;12.50;8.90
26164;DHT22;13914;48.178;11.716;2023-10-31T13:10:57;12.50;8.90
26164;DHT22;13914;48.178;11.716;2023-10-31T13:13:23;12.50;8.90
26164;DHT22;13914;48.178;11.716;2023-10-31T13:15:49;12.60;8.90
26164;DHT22;13914;48.178;11.716;2023-10-31T13:18:15;12.60;8.90
26164;DHT22;13914;48.178;11.716;2023-10-31T13:20:40;12.60;8.90
26164;DHT22;13914;48.178;11.716;2023-10-31T13:23:06;12.60;8.70
26164;DHT22;13914;48.178;11.716;2023-10-31T13:25:32;12.60;8.80
26164;DHT22;13914;48.178;11.716;2023-10-31T13:27:58;12.70;8.80
26164;DHT22;13914;48.178;11.716;2023-10-31T13:30:24;12.70;8.80
26164;DHT22;13914;48.178;11.716;2023-10-31T13:32:50;12.70;8.80
26164;DHT22;13914;48.178;11.716;2023-10-31T13:35:16;12.70;8.80
26164;DHT22;13914;48.178;11.716;2023-10-31T13:37:41;12.70;8.80
26164;DHT22;13914;48.178;11.716;2023-10-31T13:40:07;12.70;8.80
26164;DHT22;13914;48.178;11.716;2023-10-31T13:42:34;12.70;8.80
26164;DHT22;13914;48.178;11.716;2023-10-31T13:45:00;12.70;8.70
26164;DHT22;13914;48.178;11.716;2023-10-31T13:47:25;12.80;8.80
26164;DHT22;13914;48.178;11.716;2023-10-31T13:49:51;12.70;8.70
26164;DHT22;13914;48.178;11.716;2023-10-31T13:52:17;12.80;8.70
26164;DHT22;13914;48.178;11.716;2023-10-31T13:54:43;12.70;8.60
26164;DHT22;13914;48.178;11.716;2023-10-31T13:57:08;12.80;8.70
26164;DHT22;13914;48.178;11.716;2023-10-31T13:59:34;12.80;8.70
26164;DHT22;13914;48.178;11.716;2023-10-31T14:02:00;12.80;8.70
26164;DHT22;13914;48.178;11.716;2023-10-31T14:04:25;12.80;8.70
26164;DHT22;13914;48.178;11.716;2023-10-31T14:06:51;12.80;8.70
26164;DHT22;13914;48.178;11.716;2023-10-31T14:09:17;12.80;8.60
26164;DHT22;13914;48.178;11.716;2023-10-31T14:11:43;12.80;8.60
26164;DHT22;13914;48.178;11.716;2023-10-31T14:14:08;12.90;8.60
26164;DHT22;13914;48.178;11.716;2023-10-31T14:16:36;12.90;8.60
26164;DHT22;13914;48.178;11.716;2023-10-31T14:19:02;12.80;9.20
26164;DHT22;13914;48.178;11.716;2023-10-31T14:21:29;12.90;8.60
26164;DHT22;13914;48.178;11.716;2023-10-31T14:23:55;12.80;8.50
26164;DHT22;13914;48.178;11.716;2023-10-31T14:26:20;12.80;8.40
26164;DHT22;13914;48.178;11.716;2023-10-31T14:28:47;12.80;8.50
26164;DHT22;13914;48.178;11.716;2023-10-31T14:31:16;12.90;8.50
26164;DHT22;13914;48.178;11.716;2023-10-31T14:33:42;12.90;8.50
26164;DHT22;13914;48.178;11.716;2023-10-31T14:36:09;12.80;8.50
26164;DHT22;13914;48.178;11.716;2023-10-31T14:38:37;12.80;8.40
26164;DHT22;13914;48.178;11.716;2023-10-31T14:41:03;12.90;8.50
26164;DHT22;13914;48.178;11.716;2023-10-31T14:43:29;12.80;8.40
26164;DHT22;13914;48.178;11.716;2023-10-31T14:45:55;12.80;8.40
26164;DHT22;13914;48.178;11.716;2023-10-31T14:48:24;12.80;8.50
26164;DHT22;13914;48.178;11.716;2023-10-31T14:50:49;12.80;8.40
26164;DHT22;13914;48.178;11.716;2023-10-31T14:53:15;12.80;8.40
26164;DHT22;13914;48.178;11.716;2023-10-31T14:55:41;12.80;8.40
26164;DHT22;13914;48.178;11.716;2023-10-31T14:58:07;12.80;8.40
26164;DHT22;13914;48.178;11.716;2023-10-31T15:00:35;12.80;8.40
26164;DHT22;13914;48.178;11.716;2023-10-31T15:03:01;12.80;8.40
26164;DHT22;13914;48.178;11.716;2023-10-31T15:05:26;12.80;8.30
26164;DHT22;13914;48.178;11.716;2023-10-31T15:07:52;12.80;8.40
26164;DHT22;13914;48.178;11.716;2023-10-31T15:10:21;12.80;8.40
26164;DHT22;13914;48.178;11.716;2023-10-31T15:12:48;12.80;8.30
26164;DHT22;13914;48.178;11.716;2023-10-31T15:15:16;12.80;8.40
26164;DHT22;13914;48.178;11.716;2023-10-31T15:17:42;12.80;8.40
26164;DHT22;13914;48.178;11.716;2023-10-31T15:20:08;12.70;8.30
26164;DHT22;13914;48.178;11.716;2023-10-31T15:22:40;12.80;8.40
26164;DHT22;13914;48.178;11.716;2023-10-31T15:25:07;12.70;8.30
26164;DHT22;13914;48.178;11.716;2023-10-31T15:27:33;12.70;8.40
26164;DHT22;13914;48.178;11.716;2023-10-31T15:29:59;12.70;8.30